Bruce Crossing, Michigan
Current Conditions -  °F | °C
As of 12:35 AM on Friday 31 Oct 2014 (Local Time) from KLNL Reporting Station
Moderate Snow Moderate Snow  
Wind Chill: 24°   Ceiling: 300
Heat Index: 32°   Visibility: 0.75mi
Dew Point: 31°   Wind: 10mph
Humidity: 98%   Direction: 340°NNW
Pressure: 30.06"   Gusts: NA
Location:  46.53°N, 89.18°W
Report Text: KLNL 310435Z AUTO 34009KT 3/4SM SN OVC003 00/00 A3006 RMK AO2 T00001003
Loading
Personal Weather Stations






























Interactive Weather Map
Tropical Storm Tracking
New forecast layout! Learn more

10-Day Weather Forecast

Advertisements
Track Severe Weather on mobile